KFHR/FHR METAR and TAF weather

Enter ICAO airport designator
Station Type Date Time Source
KFHR METAR 2019/06/27 03:53 UTC NOAA

KFHR 270353Z AUTO 00000KT 10SM CLR 14/09 A2989 RMK AO2 RAB09E20 SLP122 P0000 T01440094


Station Type Date Time Source
KFHR Decoded METAR 2019/06/27 03:53 UTC NOAA

FRIDAY HARBOR AIRPORT, WA, United States (KFHR) 48-31N 123-02W 32M
Jun 26, 2019 - 11:53 PM EDT / 2019.06.27 0353 UTC
Wind: Calm:0
Visibility: 10 mile(s):0
Sky conditions: clear
Precipitation last hour: A trace
Temperature: 57.9 F (14.4 C)
Dew Point: 48.9 F (9.4 C)
Relative Humidity: 71%
Pressure (altimeter): 29.89 in. Hg (1012 hPa)
ob: KFHR 270353Z AUTO 00000KT 10SM CLR 14/09 A2989 RMK AO2 RAB09E20 SLP122 P0000 T01440094
cycle: 4

Station Type Date Time Source
KFHR TAF UTC NOAA

Error!

Example: see airport list